メインページ
METAR-TAF:

METAR-TAF

空港 :

クアラルンプール国際空港

クアラルンプール, マレーシア

緯度: 02-44N, 経度: 101-42E, 海抜: 21m

現時点の気象観測

当レポートは12分前の12:00(UTC)に作成
北東の風 5kt、北/北西から東/南東の間で変化する
気温 27°C
湿度 84%
気圧 1007 hPa
視程: 9000m
高度1700ftの雲はほとんどない, 積乱雲.
高度14000ftの雲は散在している
高度28000ftの千切れ雲あり

METAR: WMKK 221200Z 04005KT 340V110 9000 FEW017CB SCT140 BKN280 27/24 Q1007 NOSIG

時間: 20:12 (12:12 UTC)

予報

当レポートは1時間12分前の11:00(UTC)に作成
予報は22日の 12時(UTC)から 23日の 18時(UTC)まで有効
変向風 2kt
視程10km以上
高度1700ftの雲はほとんどない, 積乱雲.
23日の 06時(UTC)から 23日の 10時(UTC)まで一時的に
南/南東の風 8kt
視程: 4000m
高度1000ftの雲はほとんどない
高度1500ftの雲はほとんどない, 積乱雲.
激しい雷雨, 雨
23日の 12時(UTC)から 23日の 13時(UTC)まで徐々に
変向風 2kt
高度2500ftの雲はほとんどない

TAF: WMKK 221100Z 2212/2318 VRB02KT 9999 FEW017CB TEMPO 2306/2310 16008KT 4000 TSRA FEW010 FEW015CB BECMG 2312/2313 VRB02KT FEW025

4,000以上の空港の気象観測と天気予報(METAR報とTAF報)

利用可能な観測所は地図上に黄色い丸と赤い丸で示す。

丸の上にカーソルを重ねると観測所名を参照できる。

次にクリックすると気象観測と天気予報を参照できる。

マップの切り替え:黒色「×」印の緑ボタンをクリックして拡大、「-」印の緑ボタンをクリックして縮小、緑色の三角印をクリックして隣りの地図に切り替え


METAR-TAF: